Aérodrome :
LOGIN :

S'inscrire | Disclaimer

   EN    FR    IT 

 










Légende :    VFR   VFR Marginal   IFR   IFR Intensif   IFR Très Intensif
Visi : 
Plafond : 
>= 8 km
>= 3000ft
5 à 8 km
1000 à 3000 ft
1500m à 5 km
500 à 1000 ft
800 à 1500m
200 à 500 ft
< 800m
< 200 ft
Symboles :   Orages  Brouillard  Fortes neiges  Fortes précipitations  Vent > 20 kt
SIGMETs :   Divers  Orages  Givrage  Turbulence  Onde Orograph.  Cendres Volcan.







- Altitude de l'aérodrome : 370 ft


EBBE - Beauvechain AB

DERNIER METAR :
  • 220410Z AUTO 24010KT 8000 BKN002/// BKN004/// 08/07 Q1006 AMB

METARs EXPIRÉS :
  • 220355Z AUTO 24009KT 9999 -DZ OVC003/// 08/07 Q1006 YLO
  • 220325Z AUTO 24009KT 3600 BR BKN003/// 07/07 Q1006 YLO
  • 220255Z AUTO 22009KT 2800 -DZ BKN002/// OVC004/// 06/06 Q1006 AMB
  • 220225Z AUTO 22010KT 2500 BR BKN003/// BKN006/// 06/05 Q1006 YLO
  • 220155Z AUTO 22011KT 3200 BR BKN003/// BKN005/// 05/05 Q1006 YLO
  • 220125Z AUTO 21013KT 3400 BR SCT003/// OVC005/// 05/04 Q1006 YLO

Prévision TAF périmée.
Pas de NOTAMs connus pour ce terrain.



MET'MAP, la Météo Aéronautique d'un coup d'oeil ! - Copyright ORBIFLY Décembre 2007 - Disclaimer

ORBIFLY MET'MAP TEAM :

Programmation & Développement : Alexandra Zaïnal
Conception & Développement : Baudouin d'Aumeries
Co-Programmation & Développement : Marc-Olivier Méhu
Soutien technique & logistique : Manuel Goepfert

Contact : metmap@orbifly.com




SOURCES & CREDITS :

   NOAA